NEDK1: Verdigris River, Neodesha Ks

                                SHEF ID:       NEDK1     Verdigris River, Neodesha Ks
STATION TYPE:

PRECIP STAGE RIV-FLOW VOLTAGE BAT-LOAD
in ft cfs volt volt
Ccp-Rev Ccp-Rev Ccp-Rev Ccp-Rev Ccp-Rev
(America/Chicago)
02/28 00:00 0.00 11.11 246 12.95 12.73
02/28 01:00 0.00 11.07 238 12.93 12.71
02/28 02:00 0.00 11.03 231 12.91 12.70
02/28 03:00 0.00 11.00 225 12.90 12.68
02/28 04:00 0.00 10.97 219 12.88 12.66
02/28 05:00 0.00 10.94 213 12.86 12.64
02/28 06:00 0.00 10.91 208 12.84 12.63
02/28 07:00 0.00 10.89 204 12.84 12.62
02/28 08:00 0.00 10.87 199 13.19 12.69
02/28 09:00 0.00 10.85 195 13.87 13.38
02/28 10:00 0.00 10.82 189 13.59 13.32
02/28 11:00 0.00 10.81 187 14.38 13.33
02/28 12:00 0.00 10.80 185 14.05 13.24
02/28 13:00 0.00 10.78 180 13.99 13.19
02/28 14:00 0.00 10.76 176 13.55 13.17
02/28 15:00 0.00 10.75 174 13.98 13.16
02/28 16:00 0.00 10.73 170 14.02 13.11
02/28 17:00 0.00 10.72 168 14.26 13.09
02/28 18:00 0.00 10.71 166 13.23 13.07
02/28 19:00 0.00 10.71 166 13.07 12.90
02/28 20:00 0.00 10.70 164 13.02 12.82
02/28 21:00 0.00 10.70 164 13.00 12.80
02/28 22:00 0.00 10.69 162 12.99 12.76
02/28 23:00 0.00 10.69 162 12.96 12.74
Data processed at Sun 01Mar2026 05:42 GMT

NOTICE: If you are parsing this page

Please convert to using our Data API. Starting early 2026 we will be migrating to: https://water.usace.army.mil with modern pages rendered in JavaScript. When this migration completes you will no longer be able to scrape this page! CWMSDataAPI (CDA)

Timeseries IDs (TSIDs)

TSIDs used from left to right in the data table
NEOD.Precip-Inc.Total.1Hour.1Hour.Ccp-Rev
NEOD.Stage.Inst.1Hour.0.Ccp-Rev
NEOD.Flow.Inst.1Hour.0.Ccp-Rev
NEOD.Volt-Battery.Inst.1Hour.0.Ccp-Rev
NEOD.Volt-Battery Load.Inst.1Hour.0.Ccp-Rev

                            

All information presented herein is the property of the government of the United States of America and may be revised or deleted at any time without prior notice. Dissemination of this information without the expressed written consent of the Public Affairs Office, Tulsa District U.S. Army Corps of Engineers is strictly prohibited. These data are gathered electronically and, as presented, have NOT undergone any form of quality control. These data are NOT guaranteed to be valid or correct.